sensor_id;sensor_type;location;lat;lon;timestamp;P1;durP1;ratioP1;P2;durP2;ratioP2
9489;SDS011;4783;42.734;23.288;2023-05-16T08:20:45;19.27;;;11.90;;
9489;SDS011;4783;42.734;23.288;2023-05-16T08:23:10;15.52;;;10.57;;
9489;SDS011;4783;42.734;23.288;2023-05-16T08:25:36;18.88;;;11.40;;
9489;SDS011;4783;42.734;23.288;2023-05-16T08:28:01;18.48;;;11.20;;
9489;SDS011;4783;42.734;23.288;2023-05-16T08:42:44;23.95;;;12.18;;
9489;SDS011;4783;42.734;23.288;2023-05-16T08:45:09;18.42;;;12.27;;
9489;SDS011;4783;42.734;23.288;2023-05-16T08:47:35;25.48;;;11.93;;
9489;SDS011;4783;42.734;23.288;2023-05-16T08:50:05;17.90;;;11.45;;
9489;SDS011;4783;42.734;23.288;2023-05-16T08:52:32;32.03;;;11.02;;
9489;SDS011;4783;42.734;23.288;2023-05-16T08:55:01;18.23;;;11.57;;
9489;SDS011;4783;42.734;23.288;2023-05-16T08:57:26;14.18;;;10.85;;
9489;SDS011;4783;42.734;23.288;2023-05-16T08:59:53;18.58;;;11.80;;
9489;SDS011;4783;42.734;23.288;2023-05-16T09:02:20;21.08;;;10.63;;
9489;SDS011;4783;42.734;23.288;2023-05-16T09:04:46;17.23;;;10.52;;
9489;SDS011;4783;42.734;23.288;2023-05-16T09:07:12;16.58;;;9.73;;
9489;SDS011;4783;42.734;23.288;2023-05-16T09:09:38;22.80;;;10.30;;
9489;SDS011;4783;42.734;23.288;2023-05-16T09:12:03;21.58;;;10.10;;
9489;SDS011;4783;42.734;23.288;2023-05-16T09:19:15;17.65;;;10.00;;
9489;SDS011;4783;42.734;23.288;2023-05-16T09:28:20;13.52;;;10.43;;
9489;SDS011;4783;42.734;23.288;2023-05-16T09:30:46;21.35;;;10.88;;
9489;SDS011;4783;42.734;23.288;2023-05-16T09:38:52;15.07;;;9.45;;
9489;SDS011;4783;42.734;23.288;2023-05-16T09:41:18;19.73;;;10.10;;
9489;SDS011;4783;42.734;23.288;2023-05-16T09:43:45;14.40;;;9.00;;
9489;SDS011;4783;42.734;23.288;2023-05-16T09:46:13;15.98;;;9.13;;
9489;SDS011;4783;42.734;23.288;2023-05-16T09:48:48;12.50;;;9.68;;
9489;SDS011;4783;42.734;23.288;2023-05-16T09:51:15;17.10;;;10.15;;
9489;SDS011;4783;42.734;23.288;2023-05-16T09:53:45;18.55;;;8.77;;
9489;SDS011;4783;42.734;23.288;2023-05-16T09:56:11;13.77;;;9.55;;
9489;SDS011;4783;42.734;23.288;2023-05-16T09:58:37;15.45;;;9.48;;
9489;SDS011;4783;42.734;23.288;2023-05-16T10:01:02;20.65;;;9.77;;
9489;SDS011;4783;42.734;23.288;2023-05-16T10:03:28;20.55;;;9.65;;
9489;SDS011;4783;42.734;23.288;2023-05-16T10:05:54;14.55;;;9.38;;
9489;SDS011;4783;42.734;23.288;2023-05-16T10:08:19;22.17;;;10.88;;
9489;SDS011;4783;42.734;23.288;2023-05-16T10:10:45;13.23;;;9.70;;
9489;SDS011;4783;42.734;23.288;2023-05-16T10:13:11;15.55;;;9.98;;
9489;SDS011;4783;42.734;23.288;2023-05-16T10:15:37;14.73;;;8.10;;
9489;SDS011;4783;42.734;23.288;2023-05-16T10:18:03;14.23;;;8.93;;
9489;SDS011;4783;42.734;23.288;2023-05-16T10:20:31;25.02;;;9.13;;
9489;SDS011;4783;42.734;23.288;2023-05-16T10:36:26;16.45;;;10.00;;
9489;SDS011;4783;42.734;23.288;2023-05-16T10:38:51;15.35;;;9.55;;
9489;SDS011;4783;42.734;23.288;2023-05-16T10:55:08;20.95;;;10.13;;
9489;SDS011;4783;42.734;23.288;2023-05-16T10:57:34;13.25;;;9.48;;
9489;SDS011;4783;42.734;23.288;2023-05-16T11:58:52;26.25;;;11.05;;
9489;SDS011;4783;42.734;23.288;2023-05-16T12:01:17;27.58;;;10.82;;
9489;SDS011;4783;42.734;23.288;2023-05-16T12:03:43;18.00;;;10.25;;
9489;SDS011;4783;42.734;23.288;2023-05-16T12:06:08;23.25;;;9.30;;
9489;SDS011;4783;42.734;23.288;2023-05-16T12:08:33;26.48;;;10.85;;
9489;SDS011;4783;42.734;23.288;2023-05-16T12:10:59;19.50;;;9.43;;
9489;SDS011;4783;42.734;23.288;2023-05-16T12:13:24;15.60;;;9.35;;
9489;SDS011;4783;42.734;23.288;2023-05-16T12:22:30;17.75;;;8.27;;
9489;SDS011;4783;42.734;23.288;2023-05-16T12:24:57;13.10;;;8.30;;
9489;SDS011;4783;42.734;23.288;2023-05-16T12:27:26;15.38;;;7.90;;
9489;SDS011;4783;42.734;23.288;2023-05-16T12:39:45;17.85;;;9.15;;
9489;SDS011;4783;42.734;23.288;2023-05-16T14:31:06;19.75;;;13.57;;
9489;SDS011;4783;42.734;23.288;2023-05-16T14:33:31;22.92;;;14.35;;
